createdAt,value
2019-02-16T00:00:27.360Z,0
2019-02-16T00:01:37.273Z,0
2019-02-16T00:02:47.287Z,0
2019-02-16T00:03:57.201Z,0
2019-02-16T00:05:07.119Z,0
2019-02-16T00:06:17.040Z,0
2019-02-16T00:07:26.959Z,0
2019-02-16T00:08:36.975Z,0
2019-02-16T00:09:46.890Z,0
2019-02-16T00:10:56.803Z,0
2019-02-16T00:12:06.723Z,0
2019-02-16T00:13:16.388Z,0
2019-02-16T00:14:26.408Z,0
2019-02-16T00:15:36.340Z,0
2019-02-16T00:16:46.264Z,0
2019-02-16T00:17:56.181Z,0
2019-02-16T00:19:06.121Z,0
2019-02-16T00:20:16.038Z,0
2019-02-16T00:21:25.964Z,0
2019-02-16T00:22:35.879Z,0
2019-02-16T00:23:45.794Z,0
2019-02-16T00:24:55.714Z,0
2019-02-16T00:26:05.679Z,0
2019-02-16T00:27:15.594Z,0
2019-02-16T00:28:25.515Z,0
2019-02-16T00:29:35.440Z,0
2019-02-16T00:30:45.356Z,0
2019-02-16T00:31:55.380Z,0
2019-02-16T00:33:05.339Z,0
2019-02-16T00:34:15.269Z,0
2019-02-16T00:35:25.201Z,0
2019-02-16T00:36:35.134Z,0
2019-02-16T00:37:45.164Z,0
2019-02-16T00:38:56.700Z,0
2019-02-16T00:40:06.686Z,0
2019-02-16T00:41:16.610Z,0
2019-02-16T00:42:26.546Z,0
2019-02-16T00:43:36.461Z,0
2019-02-16T00:44:46.387Z,0
2019-02-16T00:45:56.068Z,0
2019-02-16T00:47:05.996Z,0
2019-02-16T00:48:15.920Z,0
2019-02-16T00:49:25.947Z,0
2019-02-16T00:50:35.868Z,0
2019-02-16T00:51:45.787Z,0
2019-02-16T00:52:55.720Z,0
2019-02-16T00:54:05.645Z,0
2019-02-16T00:55:15.667Z,0
2019-02-16T00:56:25.583Z,0
2019-02-16T00:57:35.508Z,0
2019-02-16T00:58:45.431Z,0
2019-02-16T00:59:55.638Z,0
2019-02-16T01:01:05.558Z,0
2019-02-16T01:02:15.485Z,0
2019-02-16T01:03:25.404Z,0
2019-02-16T01:04:35.323Z,0
2019-02-16T01:05:47.070Z,0
2019-02-16T01:06:57.131Z,0
2019-02-16T01:08:07.048Z,0
2019-02-16T01:09:16.973Z,0
2019-02-16T01:10:26.894Z,0
2019-02-16T01:11:36.811Z,0
2019-02-16T01:12:46.831Z,0
2019-02-16T01:13:56.759Z,0
2019-02-16T01:15:06.675Z,0
2019-02-16T01:16:16.601Z,0
2019-02-16T01:17:26.522Z,0
2019-02-16T01:18:36.543Z,0
2019-02-16T01:19:46.460Z,0
2019-02-16T01:20:56.382Z,0
2019-02-16T01:22:06.316Z,0
2019-02-16T01:23:16.245Z,0
2019-02-16T01:24:26.164Z,0
2019-02-16T01:25:36.127Z,0
2019-02-16T01:26:46.091Z,0
2019-02-16T01:27:55.757Z,0
2019-02-16T01:29:05.421Z,0
2019-02-16T01:30:15.442Z,0
2019-02-16T01:31:25.363Z,0
2019-02-16T01:32:35.282Z,0
2019-02-16T01:33:45.625Z,0
2019-02-16T01:34:55.676Z,0
2019-02-16T01:36:05.603Z,0
2019-02-16T01:37:15.519Z,0
2019-02-16T01:38:25.441Z,0
2019-02-16T01:39:35.355Z,0
2019-02-16T01:40:45.270Z,0
2019-02-16T01:41:55.213Z,0
2019-02-16T01:43:05.133Z,0
2019-02-16T01:44:15.050Z,0
2019-02-16T01:45:24.968Z,0
2019-02-16T01:46:34.891Z,0
2019-02-16T01:47:44.907Z,0
2019-02-16T01:48:54.833Z,0
2019-02-16T01:50:04.756Z,0
2019-02-16T01:51:14.675Z,0
2019-02-16T01:52:24.594Z,0
2019-02-16T01:53:34.613Z,0
2019-02-16T01:54:44.528Z,0
2019-02-16T01:55:54.800Z,0
2019-02-16T01:57:04.723Z,0
2019-02-16T01:58:14.648Z,0
2019-02-16T01:59:24.669Z,0
2019-02-16T02:00:34.584Z,0
2019-02-16T02:01:44.501Z,0
2019-02-16T02:02:54.163Z,0
2019-02-16T02:04:04.080Z,0
2019-02-16T02:05:14.096Z,0
2019-02-16T02:06:24.016Z,0
2019-02-16T02:07:33.932Z,0
2019-02-16T02:08:43.849Z,0
2019-02-16T02:09:53.847Z,0
2019-02-16T02:11:03.810Z,0
2019-02-16T02:12:13.731Z,0
2019-02-16T02:13:23.654Z,0
2019-02-16T02:14:33.571Z,0
2019-02-16T02:15:43.235Z,0
2019-02-16T02:16:53.156Z,0
2019-02-16T02:18:03.069Z,0
2019-02-16T02:19:12.994Z,0
2019-02-16T02:20:22.913Z,0
2019-02-16T02:21:40.795Z,0
2019-02-16T02:22:51.010Z,0
2019-02-16T02:24:00.927Z,0
2019-02-16T02:25:10.876Z,0
2019-02-16T02:26:20.787Z,0
2019-02-16T02:27:30.710Z,0
2019-02-16T02:28:40.676Z,0
2019-02-16T02:29:50.604Z,0
2019-02-16T02:31:00.529Z,0
2019-02-16T02:32:10.447Z,0
2019-02-16T02:33:20.368Z,0
2019-02-16T02:34:30.447Z,0
2019-02-16T02:35:40.384Z,0
2019-02-16T02:36:50.653Z,0
2019-02-16T02:38:00.590Z,0
2019-02-16T02:39:10.525Z,0
2019-02-16T02:40:20.463Z,0
2019-02-16T02:41:30.380Z,0
2019-02-16T02:42:40.305Z,0
2019-02-16T02:43:50.745Z,0
2019-02-16T02:45:00.666Z,0
2019-02-16T02:46:10.686Z,0
2019-02-16T02:47:20.604Z,0
2019-02-16T02:48:30.518Z,0
2019-02-16T02:49:40.436Z,0
2019-02-16T02:50:50.454Z,0
2019-02-16T02:52:00.483Z,0
2019-02-16T02:53:10.173Z,0
2019-02-16T02:54:20.101Z,0
2019-02-16T02:55:30.025Z,0
2019-02-16T02:56:39.950Z,0
2019-02-16T02:57:49.879Z,0
2019-02-16T02:58:59.831Z,0
2019-02-16T03:00:09.856Z,0
2019-02-16T03:01:19.785Z,0
2019-02-16T03:02:29.707Z,0
2019-02-16T03:03:39.734Z,0
2019-02-16T03:04:49.663Z,0
2019-02-16T03:05:59.592Z,0
2019-02-16T03:07:09.509Z,0
2019-02-16T03:08:19.450Z,0
2019-02-16T03:09:29.370Z,0
2019-02-16T03:10:39.288Z,0
2019-02-16T03:11:49.625Z,0
2019-02-16T03:12:59.611Z,0
2019-02-16T03:14:09.540Z,0
2019-02-16T03:15:19.568Z,0
2019-02-16T03:16:31.016Z,0
2019-02-16T03:17:40.978Z,0
2019-02-16T03:18:50.652Z,0
2019-02-16T03:20:00.574Z,0
2019-02-16T03:21:10.356Z,0
2019-02-16T03:22:20.275Z,0
2019-02-16T03:23:30.021Z,0
2019-02-16T03:24:39.957Z,0
2019-02-16T03:25:49.898Z,0
2019-02-16T03:26:59.888Z,0
2019-02-16T03:28:09.809Z,0
2019-02-16T03:29:19.799Z,0
2019-02-16T03:30:29.795Z,0
2019-02-16T03:31:39.760Z,0
2019-02-16T03:32:49.782Z,0
2019-02-16T03:33:59.741Z,0
2019-02-16T03:35:09.692Z,0
2019-02-16T03:36:19.743Z,0
2019-02-16T03:37:29.664Z,0
2019-02-16T03:38:39.330Z,0
2019-02-16T03:39:49.034Z,0
2019-02-16T03:40:58.962Z,0
2019-02-16T03:42:08.897Z,0
2019-02-16T03:43:18.814Z,0
2019-02-16T03:44:28.832Z,0
2019-02-16T03:45:38.747Z,0
2019-02-16T03:46:48.661Z,0
2019-02-16T03:47:58.587Z,0
2019-02-16T03:49:08.508Z,0
2019-02-16T03:50:18.525Z,0
2019-02-16T03:51:28.453Z,0
2019-02-16T03:52:38.406Z,0
2019-02-16T03:53:48.327Z,0
2019-02-16T03:54:58.264Z,0
2019-02-16T03:56:08.260Z,0
2019-02-16T03:57:18.175Z,0
2019-02-16T03:58:27.852Z,0
2019-02-16T03:59:37.518Z,0
2019-02-16T04:00:47.443Z,0
2019-02-16T04:01:57.600Z,0
2019-02-16T04:03:07.535Z,0
2019-02-16T04:04:17.464Z,0
2019-02-16T04:05:27.384Z,0
2019-02-16T04:06:37.316Z,0
2019-02-16T04:07:47.237Z,0
2019-02-16T04:08:57.159Z,0
2019-02-16T04:10:07.118Z,0
2019-02-16T04:11:17.105Z,0
2019-02-16T04:12:27.029Z,0
2019-02-16T04:13:37.071Z,0
2019-02-16T04:14:47.004Z,0
2019-02-16T04:15:56.936Z,0
2019-02-16T04:17:06.861Z,0
2019-02-16T04:18:16.788Z,0
2019-02-16T04:19:26.805Z,0
2019-02-16T04:20:36.483Z,0
2019-02-16T04:21:46.430Z,0
2019-02-16T04:22:56.349Z,0
2019-02-16T04:24:06.281Z,0
2019-02-16T04:25:16.296Z,0
2019-02-16T04:26:26.215Z,0
2019-02-16T04:27:36.156Z,0
2019-02-16T04:28:46.080Z,0
2019-02-16T04:29:56.002Z,0
2019-02-16T04:31:06.023Z,0
2019-02-16T04:32:15.938Z,0
2019-02-16T04:33:25.876Z,0
2019-02-16T04:34:35.810Z,0
2019-02-16T04:35:45.745Z,0
2019-02-16T04:36:55.710Z,0
2019-02-16T04:38:05.642Z,0
2019-02-16T04:39:15.560Z,0
2019-02-16T04:40:25.501Z,0
2019-02-16T04:41:35.444Z,0
2019-02-16T04:42:45.488Z,0
2019-02-16T04:43:55.402Z,0
2019-02-16T04:45:05.327Z,0
2019-02-16T04:46:15.259Z,0
2019-02-16T04:47:25.196Z,0
2019-02-16T04:48:35.214Z,0
2019-02-16T04:49:45.138Z,0
2019-02-16T04:50:55.046Z,0
2019-02-16T04:52:04.984Z,0
2019-02-16T04:53:14.908Z,0
2019-02-16T04:54:24.883Z,0
2019-02-16T04:55:34.806Z,0
2019-02-16T04:56:44.758Z,0
2019-02-16T04:57:54.689Z,0
2019-02-16T04:59:04.612Z,0
2019-02-16T05:00:14.659Z,0
2019-02-16T05:01:24.581Z,0
2019-02-16T05:02:34.506Z,0
2019-02-16T05:03:44.444Z,0
2019-02-16T05:04:54.723Z,0
2019-02-16T05:06:06.944Z,0
2019-02-16T05:07:16.868Z,0
2019-02-16T05:08:26.859Z,0
2019-02-16T05:09:36.775Z,0
2019-02-16T05:10:46.697Z,0
2019-02-16T05:11:56.713Z,0
2019-02-16T05:13:06.706Z,0
2019-02-16T05:14:16.654Z,0
2019-02-16T05:15:26.577Z,0
2019-02-16T05:16:36.502Z,0
2019-02-16T05:17:46.519Z,0
2019-02-16T05:18:56.439Z,0
2019-02-16T05:20:06.411Z,0
2019-02-16T05:21:16.368Z,0
2019-02-16T05:22:26.287Z,0
2019-02-16T05:23:36.212Z,0
2019-02-16T05:24:46.179Z,0
2019-02-16T05:25:58.430Z,0
2019-02-16T05:27:08.433Z,0
2019-02-16T05:28:18.101Z,0
2019-02-16T05:29:28.150Z,0
2019-02-16T05:30:38.076Z,0
2019-02-16T05:31:47.999Z,0
2019-02-16T05:32:57.928Z,0
2019-02-16T05:34:07.853Z,0
2019-02-16T05:35:17.906Z,0
2019-02-16T05:36:27.837Z,0
2019-02-16T05:37:37.843Z,0
2019-02-16T05:38:47.766Z,0
2019-02-16T05:39:57.680Z,0
2019-02-16T05:41:07.723Z,0
2019-02-16T05:42:17.670Z,0
2019-02-16T05:43:27.334Z,0
2019-02-16T05:44:37.264Z,0
2019-02-16T05:45:47.177Z,0
2019-02-16T05:46:57.214Z,0
2019-02-16T05:48:07.140Z,0
2019-02-16T05:49:17.061Z,0
2019-02-16T05:50:26.979Z,0
2019-02-16T05:51:36.908Z,0
2019-02-16T05:52:56.327Z,0
2019-02-16T05:54:06.256Z,0
2019-02-16T05:55:15.927Z,0
2019-02-16T05:56:25.845Z,0
2019-02-16T05:57:35.790Z,0
2019-02-16T05:58:45.711Z,0
2019-02-16T05:59:55.626Z,0
2019-02-16T06:01:05.544Z,0
2019-02-16T06:02:15.466Z,0
2019-02-16T06:03:25.396Z,0
2019-02-16T06:04:35.418Z,0
2019-02-16T06:05:45.863Z,4
2019-02-16T06:06:55.792Z,4
2019-02-16T06:08:05.475Z,0
2019-02-16T06:09:15.149Z,0
2019-02-16T06:10:25.249Z,0
2019-02-16T06:11:35.174Z,4
2019-02-16T06:12:45.119Z,4
2019-02-16T06:13:55.243Z,4
2019-02-16T06:15:05.164Z,0
2019-02-16T06:16:15.187Z,4
2019-02-16T06:17:25.102Z,0
2019-02-16T06:18:35.030Z,4
2019-02-16T06:19:44.945Z,4
2019-02-16T06:20:54.870Z,4
2019-02-16T06:22:04.787Z,4
2019-02-16T06:23:14.720Z,8
2019-02-16T06:24:24.643Z,8
2019-02-16T06:25:34.585Z,12
2019-02-16T06:26:44.503Z,8
2019-02-16T06:27:54.716Z,12
2019-02-16T06:29:04.737Z,16
2019-02-16T06:30:14.673Z,20
2019-02-16T06:31:24.592Z,20
2019-02-16T06:32:34.507Z,20
2019-02-16T06:33:44.434Z,24
2019-02-16T06:34:54.351Z,32
2019-02-16T06:36:04.284Z,36
2019-02-16T06:37:14.206Z,36
2019-02-16T06:38:24.146Z,40
2019-02-16T06:39:33.889Z,48
2019-02-16T06:40:45.956Z,60
2019-02-16T06:41:55.876Z,68
2019-02-16T06:43:05.802Z,72
2019-02-16T06:44:15.730Z,84
2019-02-16T06:45:25.652Z,92
2019-02-16T06:46:35.566Z,100
2019-02-16T06:47:45.483Z,108
2019-02-16T06:48:55.408Z,120
2019-02-16T06:50:05.327Z,132
2019-02-16T06:51:17.373Z,140
2019-02-16T06:52:27.293Z,156
2019-02-16T06:53:37.210Z,176
2019-02-16T06:54:46.894Z,192
2019-02-16T06:55:56.817Z,208
2019-02-16T06:57:06.737Z,228
2019-02-16T06:58:16.661Z,248
2019-02-16T06:59:26.590Z,272
2019-02-16T07:00:36.528Z,292
2019-02-16T07:01:46.455Z,312
2019-02-16T07:02:56.421Z,328
2019-02-16T07:04:06.340Z,332
2019-02-16T07:05:16.017Z,344
2019-02-16T07:06:25.955Z,352
2019-02-16T07:07:35.870Z,372
2019-02-16T07:08:46.731Z,400
2019-02-16T07:09:56.659Z,440
2019-02-16T07:11:06.580Z,472
2019-02-16T07:12:16.499Z,500
2019-02-16T07:13:26.457Z,528
2019-02-16T07:14:36.767Z,556
2019-02-16T07:15:46.709Z,588
2019-02-16T07:16:56.627Z,632
2019-02-16T07:18:06.554Z,688
2019-02-16T07:19:16.480Z,760
2019-02-16T07:20:26.497Z,844
2019-02-16T07:21:36.426Z,956
2019-02-16T07:22:46.478Z,1088
2019-02-16T07:23:56.399Z,1220
2019-02-16T07:25:06.332Z,1284
2019-02-16T07:26:16.349Z,1256
2019-02-16T07:27:26.270Z,1192
2019-02-16T07:28:36.242Z,1144
2019-02-16T07:29:46.162Z,1088
2019-02-16T07:30:56.091Z,1080
2019-02-16T07:32:06.031Z,1084
2019-02-16T07:33:15.949Z,1084
2019-02-16T07:34:25.935Z,1060
2019-02-16T07:35:35.932Z,1056
2019-02-16T07:36:45.857Z,1072
2019-02-16T07:37:55.903Z,1116
2019-02-16T07:39:05.825Z,1200
2019-02-16T07:40:15.748Z,1284
2019-02-16T07:41:25.669Z,1356
2019-02-16T07:42:35.594Z,1380
2019-02-16T07:43:45.621Z,1380
2019-02-16T07:44:55.287Z,1392
2019-02-16T07:46:05.218Z,1444
2019-02-16T07:47:15.147Z,1644
2019-02-16T07:48:25.068Z,1860
2019-02-16T07:49:34.984Z,2180
2019-02-16T07:50:44.973Z,2396
2019-02-16T07:51:54.895Z,2432
2019-02-16T07:53:04.818Z,2200
2019-02-16T07:54:14.483Z,1976
2019-02-16T07:55:25.485Z,1772
2019-02-16T07:56:35.409Z,1676
2019-02-16T07:57:45.323Z,1640
2019-02-16T07:58:55.287Z,1620
2019-02-16T08:00:05.222Z,1624
2019-02-16T08:01:15.243Z,1632
2019-02-16T08:02:24.914Z,1664
2019-02-16T08:03:34.834Z,1744
2019-02-16T08:04:44.758Z,1900
2019-02-16T08:05:54.681Z,2068
2019-02-16T08:07:04.707Z,2184
2019-02-16T08:08:14.627Z,2168
2019-02-16T08:09:24.348Z,2128
2019-02-16T08:10:34.266Z,2204
2019-02-16T08:11:44.183Z,2472
2019-02-16T08:12:54.201Z,2824
2019-02-16T08:14:05.332Z,2924
2019-02-16T08:15:15.252Z,2824
2019-02-16T08:16:25.177Z,2776
2019-02-16T08:17:35.094Z,2768
2019-02-16T08:18:45.015Z,2764
2019-02-16T08:19:54.952Z,2728
2019-02-16T08:21:04.876Z,2496
2019-02-16T08:22:14.796Z,2332
2019-02-16T08:23:24.467Z,2276
2019-02-16T08:24:34.382Z,2248
2019-02-16T08:25:46.293Z,2252
2019-02-16T08:26:56.223Z,2248
2019-02-16T08:28:06.170Z,2232
2019-02-16T08:29:16.110Z,2184
2019-02-16T08:30:26.033Z,2148
2019-02-16T08:31:35.953Z,2076
2019-02-16T08:32:45.883Z,1972
2019-02-16T08:33:55.799Z,1784
2019-02-16T08:35:05.716Z,1576
2019-02-16T08:36:15.657Z,1412
2019-02-16T08:37:25.574Z,1280
2019-02-16T08:38:35.496Z,1144
2019-02-16T08:39:45.419Z,1096
2019-02-16T08:40:55.338Z,1132
2019-02-16T08:42:05.363Z,1156
2019-02-16T08:43:15.287Z,1128
2019-02-16T08:44:25.238Z,1052
2019-02-16T08:45:35.168Z,936
2019-02-16T08:46:45.085Z,900
2019-02-16T08:47:55.107Z,980
2019-02-16T08:49:05.029Z,992
2019-02-16T08:50:14.948Z,912
2019-02-16T08:51:24.617Z,860
2019-02-16T08:52:34.542Z,816
2019-02-16T08:53:52.129Z,752
2019-02-16T08:55:02.052Z,740
2019-02-16T08:56:11.995Z,720
2019-02-16T08:57:21.914Z,668
2019-02-16T08:58:31.839Z,640
2019-02-16T08:59:41.751Z,668
2019-02-16T09:00:51.673Z,784
2019-02-16T09:02:01.594Z,996
2019-02-16T09:03:11.517Z,1336
2019-02-16T09:04:21.436Z,1712
2019-02-16T09:05:31.455Z,1984
2019-02-16T09:06:41.387Z,2260
2019-02-16T09:07:51.308Z,2556
2019-02-16T09:09:01.229Z,2868
2019-02-16T09:10:11.166Z,3168
2019-02-16T09:11:21.151Z,3396
2019-02-16T09:12:31.066Z,3492
2019-02-16T09:13:40.997Z,3556
2019-02-16T09:14:50.925Z,3820
2019-02-16T09:16:00.922Z,4564
2019-02-16T09:17:10.855Z,5616
2019-02-16T09:18:21.094Z,6504
2019-02-16T09:19:31.018Z,6788
2019-02-16T09:20:40.939Z,6744
2019-02-16T09:21:50.856Z,6716
2019-02-16T09:23:00.885Z,6248
2019-02-16T09:24:10.805Z,5764
2019-02-16T09:25:20.727Z,5440
2019-02-16T09:26:30.649Z,5304
2019-02-16T09:27:40.571Z,5900
2019-02-16T09:28:50.538Z,7072
2019-02-16T09:30:00.460Z,8544
2019-02-16T09:31:10.377Z,10116
2019-02-16T09:32:20.492Z,10912
2019-02-16T09:33:30.415Z,11476
2019-02-16T09:34:40.658Z,10900
2019-02-16T09:35:50.605Z,9724
2019-02-16T09:37:00.526Z,7916
2019-02-16T09:38:10.449Z,6292
2019-02-16T09:39:20.374Z,6772
2019-02-16T09:40:30.394Z,5296
2019-02-16T09:41:40.322Z,5380
2019-02-16T09:42:50.244Z,5896
2019-02-16T09:44:00.161Z,4864
2019-02-16T09:45:10.098Z,5060
2019-02-16T09:46:20.129Z,5056
2019-02-16T09:47:30.049Z,5788
2019-02-16T09:48:39.965Z,5376
2019-02-16T09:49:49.882Z,4692
2019-02-16T09:50:59.806Z,4828
2019-02-16T09:52:09.574Z,4092
2019-02-16T09:53:19.501Z,3408
2019-02-16T09:54:29.423Z,3488
2019-02-16T09:55:39.346Z,3884
2019-02-16T09:56:49.265Z,4200
2019-02-16T09:57:59.404Z,4496
2019-02-16T09:59:09.323Z,4504
2019-02-16T10:00:21.213Z,4560
2019-02-16T10:01:31.132Z,4048
2019-02-16T10:02:41.050Z,3892
2019-02-16T10:03:51.075Z,4092
2019-02-16T10:05:01.050Z,5992
2019-02-16T10:06:10.969Z,6204
2019-02-16T10:07:20.897Z,6776
2019-02-16T10:08:30.814Z,5292
2019-02-16T10:09:40.847Z,6048
2019-02-16T10:10:50.777Z,4696
2019-02-16T10:12:00.694Z,3656
2019-02-16T10:13:10.612Z,3184
2019-02-16T10:14:20.535Z,3140
2019-02-16T10:15:30.552Z,2868
2019-02-16T10:16:40.472Z,2864
2019-02-16T10:17:50.437Z,2824
2019-02-16T10:19:00.364Z,3312
2019-02-16T10:20:10.296Z,4112
2019-02-16T10:21:20.269Z,9172
2019-02-16T10:22:30.188Z,8864
2019-02-16T10:23:40.104Z,9472
2019-02-16T10:24:49.777Z,10648
2019-02-16T10:25:59.831Z,11244
2019-02-16T10:27:09.764Z,11600
2019-02-16T10:28:19.681Z,8952
2019-02-16T10:29:31.267Z,6480
2019-02-16T10:30:41.191Z,8852
2019-02-16T10:31:51.146Z,8796
2019-02-16T10:33:01.120Z,9688
2019-02-16T10:34:10.796Z,8964
2019-02-16T10:35:20.723Z,11464
2019-02-16T10:36:31.827Z,10852
2019-02-16T10:37:41.748Z,9808
2019-02-16T10:38:51.719Z,9360
2019-02-16T10:40:01.651Z,7512
2019-02-16T10:41:11.584Z,4932
2019-02-16T10:42:21.509Z,7000
2019-02-16T10:43:31.432Z,7012
2019-02-16T10:44:41.419Z,7144
2019-02-16T10:45:51.339Z,7448
2019-02-16T10:47:01.267Z,7260
2019-02-16T10:48:11.186Z,7332
2019-02-16T10:49:21.113Z,7796
2019-02-16T10:50:31.143Z,7628
2019-02-16T10:51:41.063Z,7580
2019-02-16T10:52:50.980Z,7752
2019-02-16T10:54:01.042Z,8212
2019-02-16T10:55:10.787Z,8416
2019-02-16T10:56:20.806Z,7900
2019-02-16T10:57:30.730Z,7796
2019-02-16T10:58:40.647Z,7704
2019-02-16T10:59:50.770Z,7696
2019-02-16T11:01:00.690Z,7672
2019-02-16T11:02:10.616Z,7472
2019-02-16T11:03:22.320Z,7876
2019-02-16T11:04:42.660Z,19168
2019-02-16T11:05:52.577Z,28928
2019-02-16T11:07:02.501Z,30304
2019-02-16T11:08:12.528Z,30464
2019-02-16T11:09:22.446Z,30592
2019-02-16T11:10:32.368Z,30880
2019-02-16T11:11:42.292Z,31488
2019-02-16T11:12:53.270Z,31872
2019-02-16T11:14:03.188Z,31776
2019-02-16T11:15:13.125Z,32288
2019-02-16T11:16:23.115Z,32224
2019-02-16T11:17:33.040Z,32736
2019-02-16T11:18:43.061Z,32128
2019-02-16T11:19:52.991Z,31840
2019-02-16T11:21:02.964Z,31680
2019-02-16T11:22:12.905Z,31168
2019-02-16T11:23:22.835Z,25600
2019-02-16T11:24:40.512Z,30848
2019-02-16T11:25:50.436Z,31424
2019-02-16T11:27:00.425Z,30336
2019-02-16T11:28:10.358Z,32256
2019-02-16T11:29:20.288Z,30720
2019-02-16T11:30:30.261Z,17152
2019-02-16T11:31:40.184Z,18272
2019-02-16T11:32:50.109Z,14112
2019-02-16T11:34:00.031Z,10732
2019-02-16T11:35:10.322Z,10872
2019-02-16T11:36:20.454Z,11416
2019-02-16T11:37:30.380Z,35488
2019-02-16T11:38:40.304Z,33952
2019-02-16T11:39:49.990Z,33344
2019-02-16T11:40:59.921Z,35424
2019-02-16T11:42:09.968Z,33984
2019-02-16T11:43:19.896Z,36576
2019-02-16T11:44:29.821Z,36352
2019-02-16T11:45:39.918Z,36576
2019-02-16T11:46:49.851Z,36000
2019-02-16T11:48:00.732Z,34656
2019-02-16T11:49:10.796Z,33408
2019-02-16T11:50:20.730Z,16704
2019-02-16T11:51:30.669Z,33760
2019-02-16T11:52:40.616Z,28512
2019-02-16T11:53:51.698Z,18560
2019-02-16T11:55:01.728Z,34336
2019-02-16T11:56:11.668Z,34208
2019-02-16T11:57:21.617Z,31392
2019-02-16T11:58:31.553Z,34240
2019-02-16T11:59:41.536Z,35648
2019-02-16T12:00:51.475Z,35392
2019-02-16T12:02:01.412Z,36064
2019-02-16T12:03:11.348Z,36384
2019-02-16T12:04:22.081Z,36256
2019-02-16T12:05:32.172Z,37280
2019-02-16T12:06:42.108Z,38048
2019-02-16T12:07:52.047Z,39136
2019-02-16T12:09:02.284Z,40064
2019-02-16T12:10:12.216Z,32352
2019-02-16T12:11:22.269Z,28864
2019-02-16T12:12:32.229Z,24000
2019-02-16T12:13:42.163Z,22848
2019-02-16T12:14:52.116Z,19744
2019-02-16T12:16:02.466Z,20672
2019-02-16T12:17:12.247Z,19776
2019-02-16T12:18:22.182Z,18816
2019-02-16T12:19:32.126Z,18944
2019-02-16T12:20:42.066Z,18944
2019-02-16T12:21:52.014Z,18624
2019-02-16T12:23:02.064Z,17376
2019-02-16T12:24:11.993Z,17376
2019-02-16T12:25:21.923Z,17856
2019-02-16T12:26:31.854Z,18688
2019-02-16T12:27:41.787Z,19104
2019-02-16T12:28:51.831Z,19232
2019-02-16T12:30:01.770Z,19136
2019-02-16T12:31:11.716Z,19168
2019-02-16T12:32:21.651Z,18592
2019-02-16T12:33:31.588Z,17824
2019-02-16T12:34:41.568Z,19232
2019-02-16T12:35:51.510Z,16448
2019-02-16T12:37:01.443Z,17632
2019-02-16T12:38:11.377Z,17984
2019-02-16T12:39:21.313Z,16960
2019-02-16T12:40:31.292Z,16896
2019-02-16T12:41:41.224Z,13724
2019-02-16T12:42:51.175Z,16004
2019-02-16T12:44:01.137Z,15544
2019-02-16T12:45:11.071Z,15192
2019-02-16T12:46:21.109Z,16416
2019-02-16T12:47:31.102Z,18112
2019-02-16T12:48:41.041Z,18848
2019-02-16T12:49:50.976Z,20128
2019-02-16T12:51:02.000Z,19744
2019-02-16T12:52:12.047Z,19296
2019-02-16T12:53:21.982Z,19808
2019-02-16T12:54:31.917Z,20288
2019-02-16T12:55:41.851Z,20672
2019-02-16T12:56:51.791Z,21728
2019-02-16T12:58:01.831Z,22400
2019-02-16T12:59:11.767Z,22240
2019-02-16T13:00:21.463Z,22464
2019-02-16T13:01:31.433Z,22464
2019-02-16T13:02:41.369Z,22816
2019-02-16T13:03:51.409Z,22432
2019-02-16T13:05:01.405Z,19040
2019-02-16T13:06:11.355Z,21984
2019-02-16T13:07:21.349Z,21312
2019-02-16T13:08:31.317Z,20384
2019-02-16T13:09:42.793Z,19680
2019-02-16T13:10:52.521Z,18880
2019-02-16T13:12:02.486Z,18720
2019-02-16T13:13:12.474Z,19072
2019-02-16T13:14:22.203Z,18400
2019-02-16T13:15:32.268Z,18944
2019-02-16T13:16:42.211Z,17952
2019-02-16T13:17:51.898Z,19328
2019-02-16T13:19:01.832Z,19520
2019-02-16T13:20:11.522Z,14664
2019-02-16T13:21:21.717Z,13076
2019-02-16T13:22:31.653Z,16416
2019-02-16T13:23:41.596Z,11676
2019-02-16T13:24:52.344Z,12084
2019-02-16T13:26:02.275Z,14584
2019-02-16T13:27:12.266Z,13264
2019-02-16T13:28:22.211Z,21120
2019-02-16T13:29:32.156Z,26304
2019-02-16T13:30:42.086Z,23616
2019-02-16T13:31:52.021Z,13840
2019-02-16T13:33:10.873Z,10464
2019-02-16T13:34:20.694Z,8900
2019-02-16T13:35:30.626Z,7884
2019-02-16T13:36:40.555Z,6980
2019-02-16T13:37:50.491Z,6232
2019-02-16T13:39:00.477Z,5836
2019-02-16T13:40:10.415Z,5632
2019-02-16T13:41:20.346Z,5572
2019-02-16T13:42:30.284Z,5432
2019-02-16T13:43:40.214Z,5004
2019-02-16T13:44:50.192Z,4448
2019-02-16T13:46:00.128Z,4108
2019-02-16T13:47:10.054Z,4072
2019-02-16T13:48:19.982Z,4412
2019-02-16T13:49:29.940Z,4484
2019-02-16T13:50:39.920Z,4412
2019-02-16T13:51:49.847Z,4284
2019-02-16T13:52:59.774Z,4080
2019-02-16T13:54:09.451Z,3920
2019-02-16T13:55:19.377Z,3872
2019-02-16T13:56:29.359Z,3776
2019-02-16T13:57:39.296Z,3836
2019-02-16T13:58:49.234Z,4080
2019-02-16T13:59:58.655Z,4160
2019-02-16T14:01:08.585Z,4232
2019-02-16T14:02:18.329Z,4484
2019-02-16T14:03:28.274Z,4676
2019-02-16T14:04:38.201Z,4668
2019-02-16T14:05:48.125Z,4596
2019-02-16T14:06:58.049Z,4756
2019-02-16T14:08:08.525Z,4688
2019-02-16T14:09:18.453Z,4508
2019-02-16T14:10:28.381Z,4612
2019-02-16T14:11:38.314Z,4500
2019-02-16T14:12:48.239Z,4152
2019-02-16T14:13:58.266Z,3760
2019-02-16T14:15:08.189Z,3388
2019-02-16T14:16:18.123Z,3156
2019-02-16T14:17:28.058Z,3012
2019-02-16T14:18:37.982Z,3016
2019-02-16T14:19:47.955Z,3060
2019-02-16T14:20:57.879Z,3064
2019-02-16T14:22:07.807Z,2928
2019-02-16T14:23:17.728Z,2676
2019-02-16T14:24:27.653Z,2432
2019-02-16T14:25:46.236Z,2264
2019-02-16T14:26:55.914Z,2172
2019-02-16T14:28:05.839Z,2140
2019-02-16T14:29:15.769Z,2104
2019-02-16T14:30:25.698Z,2132
2019-02-16T14:31:36.016Z,2204
2019-02-16T14:32:45.951Z,2340
2019-02-16T14:33:57.146Z,2744
2019-02-16T14:35:07.419Z,3112
2019-02-16T14:36:17.339Z,3100
2019-02-16T14:37:28.480Z,3488
2019-02-16T14:38:38.401Z,3904
2019-02-16T14:39:48.323Z,4112
2019-02-16T14:40:58.289Z,4232
2019-02-16T14:42:08.227Z,4304
2019-02-16T14:43:18.251Z,4412
2019-02-16T14:44:28.174Z,4324
2019-02-16T14:45:38.102Z,4128
2019-02-16T14:46:48.026Z,3884
2019-02-16T14:47:57.705Z,3656
2019-02-16T14:49:07.475Z,3380
2019-02-16T14:50:19.274Z,3104
2019-02-16T14:51:29.197Z,2784
2019-02-16T14:52:39.125Z,2548
2019-02-16T14:53:49.048Z,2456
2019-02-16T14:54:59.078Z,2400
2019-02-16T14:56:08.753Z,2244
2019-02-16T14:57:18.671Z,2112
2019-02-16T14:58:28.616Z,2136
2019-02-16T14:59:38.549Z,2280
2019-02-16T15:00:48.576Z,2376
2019-02-16T15:01:58.497Z,2428
2019-02-16T15:03:08.421Z,2436
2019-02-16T15:04:18.345Z,2224
2019-02-16T15:05:28.265Z,2056
2019-02-16T15:06:39.033Z,1924
2019-02-16T15:07:48.957Z,1868
2019-02-16T15:08:58.887Z,1764
2019-02-16T15:10:08.817Z,1680
2019-02-16T15:11:18.757Z,1532
2019-02-16T15:12:28.733Z,1480
2019-02-16T15:13:38.685Z,1440
2019-02-16T15:14:48.607Z,1392
2019-02-16T15:15:58.562Z,1380
2019-02-16T15:17:08.483Z,1396
2019-02-16T15:18:18.503Z,1460
2019-02-16T15:19:30.287Z,1592
2019-02-16T15:20:40.212Z,1552
2019-02-16T15:21:50.141Z,1324
2019-02-16T15:23:00.080Z,1264
2019-02-16T15:24:10.104Z,1316
2019-02-16T15:25:20.037Z,1400
2019-02-16T15:26:36.002Z,1216
2019-02-16T15:27:45.945Z,1180
2019-02-16T15:28:55.879Z,1140
2019-02-16T15:30:05.597Z,1076
2019-02-16T15:31:15.520Z,984
2019-02-16T15:32:25.495Z,940
2019-02-16T15:33:35.417Z,924
2019-02-16T15:34:45.335Z,892
2019-02-16T15:35:55.309Z,840
2019-02-16T15:37:05.239Z,808
2019-02-16T15:38:15.180Z,792
2019-02-16T15:39:25.125Z,740
2019-02-16T15:40:35.050Z,708
2019-02-16T15:41:45.027Z,692
2019-02-16T15:42:54.987Z,660
2019-02-16T15:44:04.926Z,640
2019-02-16T15:45:14.849Z,624
2019-02-16T15:46:24.773Z,616
2019-02-16T15:47:34.743Z,592
2019-02-16T15:48:44.671Z,584
2019-02-16T15:49:54.599Z,552
2019-02-16T15:51:04.514Z,516
2019-02-16T15:52:14.447Z,492
2019-02-16T15:53:24.470Z,472
2019-02-16T15:54:34.387Z,440
2019-02-16T15:55:44.310Z,428
2019-02-16T15:56:55.836Z,416
2019-02-16T15:58:05.802Z,400
2019-02-16T15:59:16.997Z,380
2019-02-16T16:00:27.226Z,360
2019-02-16T16:01:37.162Z,340
2019-02-16T16:02:47.163Z,324
2019-02-16T16:03:56.857Z,316
2019-02-16T16:05:06.893Z,296
2019-02-16T16:06:16.870Z,268
2019-02-16T16:07:26.797Z,244
2019-02-16T16:08:36.720Z,220
2019-02-16T16:09:46.452Z,200